sensor_id;sensor_type;location;lat;lon;timestamp;P1;durP1;ratioP1;P2;durP2;ratioP2
35326;SDS011;21436;52.348;20.928;2023-01-10T00:01:04;104.32;;;37.60;;
35326;SDS011;21436;52.348;20.928;2023-01-10T00:03:32;113.60;;;38.33;;
35326;SDS011;21436;52.348;20.928;2023-01-10T00:06:00;109.55;;;37.70;;
35326;SDS011;21436;52.348;20.928;2023-01-10T00:08:27;109.35;;;37.13;;
35326;SDS011;21436;52.348;20.928;2023-01-10T00:10:55;126.30;;;39.58;;
35326;SDS011;21436;52.348;20.928;2023-01-10T00:13:22;107.63;;;38.35;;
35326;SDS011;21436;52.348;20.928;2023-01-10T00:15:50;112.65;;;38.95;;
35326;SDS011;21436;52.348;20.928;2023-01-10T00:18:18;110.03;;;37.10;;
35326;SDS011;21436;52.348;20.928;2023-01-10T00:20:46;107.03;;;37.20;;
35326;SDS011;21436;52.348;20.928;2023-01-10T00:23:15;113.30;;;37.83;;
35326;SDS011;21436;52.348;20.928;2023-01-10T00:25:44;108.57;;;38.33;;
35326;SDS011;21436;52.348;20.928;2023-01-10T00:28:12;118.78;;;39.28;;
35326;SDS011;21436;52.348;20.928;2023-01-10T00:30:47;115.57;;;37.70;;
35326;SDS011;21436;52.348;20.928;2023-01-10T00:33:21;106.75;;;37.88;;
35326;SDS011;21436;52.348;20.928;2023-01-10T00:35:49;111.18;;;38.72;;
35326;SDS011;21436;52.348;20.928;2023-01-10T00:38:17;118.10;;;38.75;;
35326;SDS011;21436;52.348;20.928;2023-01-10T00:40:45;111.45;;;37.83;;
35326;SDS011;21436;52.348;20.928;2023-01-10T00:43:12;110.80;;;37.65;;
35326;SDS011;21436;52.348;20.928;2023-01-10T00:45:58;111.90;;;36.42;;
35326;SDS011;21436;52.348;20.928;2023-01-10T00:48:26;110.72;;;37.33;;
35326;SDS011;21436;52.348;20.928;2023-01-10T00:50:53;106.25;;;36.63;;
35326;SDS011;21436;52.348;20.928;2023-01-10T00:53:21;105.00;;;37.08;;
35326;SDS011;21436;52.348;20.928;2023-01-10T00:55:48;114.20;;;35.75;;
35326;SDS011;21436;52.348;20.928;2023-01-10T00:58:16;111.40;;;38.63;;
35326;SDS011;21436;52.348;20.928;2023-01-10T01:00:43;115.35;;;37.20;;
35326;SDS011;21436;52.348;20.928;2023-01-10T01:03:18;105.20;;;35.80;;
35326;SDS011;21436;52.348;20.928;2023-01-10T01:05:46;119.68;;;38.42;;
35326;SDS011;21436;52.348;20.928;2023-01-10T01:08:15;121.22;;;38.72;;
35326;SDS011;21436;52.348;20.928;2023-01-10T01:10:44;123.85;;;38.97;;
35326;SDS011;21436;52.348;20.928;2023-01-10T01:13:19;117.57;;;39.30;;
35326;SDS011;21436;52.348;20.928;2023-01-10T01:15:47;121.13;;;37.80;;
35326;SDS011;21436;52.348;20.928;2023-01-10T01:18:17;117.30;;;38.13;;
35326;SDS011;21436;52.348;20.928;2023-01-10T01:20:47;124.68;;;39.22;;
35326;SDS011;21436;52.348;20.928;2023-01-10T01:23:18;126.60;;;38.25;;
35326;SDS011;21436;52.348;20.928;2023-01-10T01:25:48;126.80;;;38.92;;
35326;SDS011;21436;52.348;20.928;2023-01-10T01:28:17;126.60;;;40.22;;
35326;SDS011;21436;52.348;20.928;2023-01-10T01:30:44;127.72;;;39.53;;
35326;SDS011;21436;52.348;20.928;2023-01-10T01:33:12;135.63;;;40.40;;
35326;SDS011;21436;52.348;20.928;2023-01-10T01:35:42;127.82;;;39.85;;
35326;SDS011;21436;52.348;20.928;2023-01-10T01:38:10;124.18;;;39.05;;
35326;SDS011;21436;52.348;20.928;2023-01-10T01:40:38;115.05;;;38.20;;
35326;SDS011;21436;52.348;20.928;2023-01-10T01:43:18;120.88;;;38.38;;
35326;SDS011;21436;52.348;20.928;2023-01-10T01:45:49;127.65;;;39.80;;
35326;SDS011;21436;52.348;20.928;2023-01-10T01:48:22;116.30;;;37.97;;
35326;SDS011;21436;52.348;20.928;2023-01-10T01:53:36;119.57;;;38.28;;
35326;SDS011;21436;52.348;20.928;2023-01-10T01:56:17;124.00;;;40.15;;
35326;SDS011;21436;52.348;20.928;2023-01-10T01:58:56;114.63;;;40.25;;
35326;SDS011;21436;52.348;20.928;2023-01-10T02:01:27;117.72;;;39.45;;
35326;SDS011;21436;52.348;20.928;2023-01-10T02:03:59;119.90;;;39.00;;
35326;SDS011;21436;52.348;20.928;2023-01-10T02:06:29;118.75;;;38.28;;
35326;SDS011;21436;52.348;20.928;2023-01-10T02:11:49;119.15;;;38.35;;
35326;SDS011;21436;52.348;20.928;2023-01-10T02:14:17;121.90;;;38.38;;
35326;SDS011;21436;52.348;20.928;2023-01-10T02:16:45;122.60;;;41.90;;
35326;SDS011;21436;52.348;20.928;2023-01-10T02:19:18;116.85;;;39.33;;
35326;SDS011;21436;52.348;20.928;2023-01-10T02:34:27;124.38;;;39.72;;
35326;SDS011;21436;52.348;20.928;2023-01-10T02:37:32;128.70;;;39.30;;
35326;SDS011;21436;52.348;20.928;2023-01-10T02:40:11;125.32;;;39.85;;
35326;SDS011;21436;52.348;20.928;2023-01-10T02:42:47;122.10;;;38.22;;
35326;SDS011;21436;52.348;20.928;2023-01-10T02:47:46;112.03;;;36.80;;
35326;SDS011;21436;52.348;20.928;2023-01-10T02:50:23;120.80;;;39.08;;
35326;SDS011;21436;52.348;20.928;2023-01-10T02:53:26;122.68;;;40.88;;
35326;SDS011;21436;52.348;20.928;2023-01-10T02:56:45;120.03;;;39.25;;
35326;SDS011;21436;52.348;20.928;2023-01-10T02:59:10;122.32;;;39.60;;
35326;SDS011;21436;52.348;20.928;2023-01-10T03:06:45;127.80;;;40.30;;
35326;SDS011;21436;52.348;20.928;2023-01-10T03:09:26;110.07;;;37.78;;
35326;SDS011;21436;52.348;20.928;2023-01-10T03:12:11;110.10;;;38.90;;
35326;SDS011;21436;52.348;20.928;2023-01-10T03:14:40;122.60;;;40.53;;
35326;SDS011;21436;52.348;20.928;2023-01-10T03:17:09;117.82;;;37.85;;
35326;SDS011;21436;52.348;20.928;2023-01-10T03:19:39;123.72;;;39.28;;
35326;SDS011;21436;52.348;20.928;2023-01-10T03:22:09;124.55;;;40.40;;
35326;SDS011;21436;52.348;20.928;2023-01-10T03:24:39;129.18;;;40.30;;
35326;SDS011;21436;52.348;20.928;2023-01-10T03:32:12;122.57;;;39.78;;
35326;SDS011;21436;52.348;20.928;2023-01-10T03:34:41;134.10;;;40.95;;
35326;SDS011;21436;52.348;20.928;2023-01-10T03:37:13;128.27;;;39.70;;
35326;SDS011;21436;52.348;20.928;2023-01-10T03:45:28;124.63;;;38.97;;
35326;SDS011;21436;52.348;20.928;2023-01-10T03:48:00;125.32;;;40.55;;
35326;SDS011;21436;52.348;20.928;2023-01-10T03:50:29;135.43;;;40.03;;
35326;SDS011;21436;52.348;20.928;2023-01-10T03:52:57;123.38;;;40.90;;
35326;SDS011;21436;52.348;20.928;2023-01-10T03:55:26;122.28;;;40.97;;
35326;SDS011;21436;52.348;20.928;2023-01-10T03:57:54;123.40;;;39.28;;
35326;SDS011;21436;52.348;20.928;2023-01-10T04:00:22;116.68;;;39.25;;
35326;SDS011;21436;52.348;20.928;2023-01-10T04:02:50;146.35;;;46.53;;
35326;SDS011;21436;52.348;20.928;2023-01-10T04:05:18;132.43;;;41.50;;
35326;SDS011;21436;52.348;20.928;2023-01-10T04:07:45;121.40;;;38.97;;
35326;SDS011;21436;52.348;20.928;2023-01-10T04:10:14;131.25;;;39.67;;
35326;SDS011;21436;52.348;20.928;2023-01-10T04:12:41;126.22;;;38.90;;
35326;SDS011;21436;52.348;20.928;2023-01-10T04:15:09;125.13;;;40.70;;
35326;SDS011;21436;52.348;20.928;2023-01-10T04:17:36;137.43;;;40.67;;
35326;SDS011;21436;52.348;20.928;2023-01-10T04:20:04;127.55;;;39.40;;
35326;SDS011;21436;52.348;20.928;2023-01-10T04:22:32;133.38;;;41.58;;
35326;SDS011;21436;52.348;20.928;2023-01-10T04:25:00;129.10;;;40.08;;
35326;SDS011;21436;52.348;20.928;2023-01-10T04:27:27;140.70;;;42.30;;
35326;SDS011;21436;52.348;20.928;2023-01-10T04:29:54;133.82;;;41.80;;
35326;SDS011;21436;52.348;20.928;2023-01-10T04:32:21;132.45;;;41.50;;
35326;SDS011;21436;52.348;20.928;2023-01-10T04:34:49;144.68;;;43.55;;
35326;SDS011;21436;52.348;20.928;2023-01-10T04:37:17;138.77;;;42.97;;
35326;SDS011;21436;52.348;20.928;2023-01-10T04:39:44;134.43;;;40.20;;
35326;SDS011;21436;52.348;20.928;2023-01-10T04:42:12;137.05;;;39.50;;
35326;SDS011;21436;52.348;20.928;2023-01-10T04:44:40;118.13;;;37.97;;
35326;SDS011;21436;52.348;20.928;2023-01-10T04:47:07;141.27;;;40.35;;
35326;SDS011;21436;52.348;20.928;2023-01-10T04:49:35;117.68;;;37.42;;
35326;SDS011;21436;52.348;20.928;2023-01-10T04:52:02;128.68;;;38.72;;
35326;SDS011;21436;52.348;20.928;2023-01-10T04:54:30;130.55;;;39.13;;
35326;SDS011;21436;52.348;20.928;2023-01-10T04:56:57;120.57;;;35.95;;
35326;SDS011;21436;52.348;20.928;2023-01-10T04:59:25;127.13;;;38.42;;
35326;SDS011;21436;52.348;20.928;2023-01-10T05:01:52;122.88;;;37.50;;
35326;SDS011;21436;52.348;20.928;2023-01-10T05:04:20;121.22;;;36.97;;
35326;SDS011;21436;52.348;20.928;2023-01-10T05:06:48;136.02;;;37.67;;
35326;SDS011;21436;52.348;20.928;2023-01-10T05:09:15;127.75;;;39.08;;
35326;SDS011;21436;52.348;20.928;2023-01-10T05:11:43;125.85;;;35.63;;
35326;SDS011;21436;52.348;20.928;2023-01-10T05:14:10;122.63;;;36.97;;
35326;SDS011;21436;52.348;20.928;2023-01-10T05:16:37;127.07;;;39.50;;
35326;SDS011;21436;52.348;20.928;2023-01-10T05:19:05;134.70;;;38.47;;
35326;SDS011;21436;52.348;20.928;2023-01-10T05:21:32;129.18;;;37.42;;
35326;SDS011;21436;52.348;20.928;2023-01-10T05:24:00;114.88;;;38.58;;
35326;SDS011;21436;52.348;20.928;2023-01-10T05:26:27;111.45;;;36.53;;
35326;SDS011;21436;52.348;20.928;2023-01-10T05:28:55;119.30;;;37.17;;
35326;SDS011;21436;52.348;20.928;2023-01-10T05:31:22;123.38;;;36.95;;
35326;SDS011;21436;52.348;20.928;2023-01-10T05:33:51;120.57;;;39.00;;
35326;SDS011;21436;52.348;20.928;2023-01-10T05:36:18;119.65;;;38.10;;
35326;SDS011;21436;52.348;20.928;2023-01-10T05:38:46;114.70;;;38.03;;
35326;SDS011;21436;52.348;20.928;2023-01-10T05:41:14;110.07;;;34.75;;
35326;SDS011;21436;52.348;20.928;2023-01-10T05:43:41;119.65;;;37.92;;
35326;SDS011;21436;52.348;20.928;2023-01-10T05:46:09;119.53;;;37.30;;
35326;SDS011;21436;52.348;20.928;2023-01-10T05:48:36;117.97;;;37.47;;
35326;SDS011;21436;52.348;20.928;2023-01-10T05:51:04;109.35;;;36.80;;
35326;SDS011;21436;52.348;20.928;2023-01-10T05:53:32;110.82;;;36.47;;
35326;SDS011;21436;52.348;20.928;2023-01-10T05:56:00;115.45;;;36.67;;
35326;SDS011;21436;52.348;20.928;2023-01-10T05:58:28;114.28;;;36.20;;
35326;SDS011;21436;52.348;20.928;2023-01-10T06:00:56;114.25;;;37.15;;
35326;SDS011;21436;52.348;20.928;2023-01-10T06:03:23;108.47;;;36.45;;
35326;SDS011;21436;52.348;20.928;2023-01-10T06:05:55;116.93;;;37.58;;
35326;SDS011;21436;52.348;20.928;2023-01-10T06:08:23;115.75;;;38.85;;
35326;SDS011;21436;52.348;20.928;2023-01-10T06:10:51;115.55;;;37.70;;
35326;SDS011;21436;52.348;20.928;2023-01-10T06:13:18;115.68;;;37.92;;
35326;SDS011;21436;52.348;20.928;2023-01-10T06:15:46;111.90;;;38.72;;
35326;SDS011;21436;52.348;20.928;2023-01-10T06:18:14;108.57;;;37.28;;
35326;SDS011;21436;52.348;20.928;2023-01-10T06:20:42;117.47;;;36.63;;
35326;SDS011;21436;52.348;20.928;2023-01-10T06:23:10;119.38;;;38.63;;
35326;SDS011;21436;52.348;20.928;2023-01-10T06:25:37;107.35;;;36.17;;
35326;SDS011;21436;52.348;20.928;2023-01-10T06:28:08;115.82;;;37.25;;
35326;SDS011;21436;52.348;20.928;2023-01-10T06:30:37;111.60;;;37.45;;
35326;SDS011;21436;52.348;20.928;2023-01-10T06:33:05;113.43;;;37.25;;
35326;SDS011;21436;52.348;20.928;2023-01-10T06:35:33;101.45;;;34.90;;
35326;SDS011;21436;52.348;20.928;2023-01-10T06:38:01;102.20;;;36.60;;
35326;SDS011;21436;52.348;20.928;2023-01-10T06:40:29;114.63;;;39.28;;
35326;SDS011;21436;52.348;20.928;2023-01-10T06:42:56;111.82;;;38.22;;
35326;SDS011;21436;52.348;20.928;2023-01-10T06:45:24;124.75;;;38.13;;
35326;SDS011;21436;52.348;20.928;2023-01-10T06:47:52;115.20;;;38.42;;
35326;SDS011;21436;52.348;20.928;2023-01-10T06:50:19;116.82;;;38.22;;
35326;SDS011;21436;52.348;20.928;2023-01-10T06:52:55;117.05;;;41.65;;
35326;SDS011;21436;52.348;20.928;2023-01-10T06:55:23;116.07;;;37.83;;
35326;SDS011;21436;52.348;20.928;2023-01-10T06:57:55;111.95;;;38.58;;
35326;SDS011;21436;52.348;20.928;2023-01-10T07:00:24;110.75;;;39.63;;
35326;SDS011;21436;52.348;20.928;2023-01-10T07:02:54;116.03;;;39.72;;
35326;SDS011;21436;52.348;20.928;2023-01-10T07:05:22;125.88;;;39.58;;
35326;SDS011;21436;52.348;20.928;2023-01-10T07:07:50;115.07;;;40.63;;
35326;SDS011;21436;52.348;20.928;2023-01-10T07:10:17;114.38;;;39.00;;
35326;SDS011;21436;52.348;20.928;2023-01-10T07:12:45;115.13;;;38.92;;
35326;SDS011;21436;52.348;20.928;2023-01-10T07:15:12;125.20;;;39.60;;
35326;SDS011;21436;52.348;20.928;2023-01-10T07:17:40;156.57;;;59.80;;
35326;SDS011;21436;52.348;20.928;2023-01-10T07:20:08;148.43;;;56.70;;
35326;SDS011;21436;52.348;20.928;2023-01-10T07:22:36;292.65;;;107.55;;
35326;SDS011;21436;52.348;20.928;2023-01-10T07:25:04;244.98;;;92.35;;
35326;SDS011;21436;52.348;20.928;2023-01-10T07:27:32;168.18;;;62.55;;
35326;SDS011;21436;52.348;20.928;2023-01-10T07:29:59;111.45;;;40.60;;
35326;SDS011;21436;52.348;20.928;2023-01-10T07:32:27;116.43;;;40.13;;
35326;SDS011;21436;52.348;20.928;2023-01-10T07:34:54;119.93;;;38.67;;
35326;SDS011;21436;52.348;20.928;2023-01-10T07:37:22;107.97;;;38.92;;
35326;SDS011;21436;52.348;20.928;2023-01-10T07:39:49;107.10;;;37.45;;
35326;SDS011;21436;52.348;20.928;2023-01-10T07:42:17;117.68;;;40.45;;
35326;SDS011;21436;52.348;20.928;2023-01-10T07:44:44;114.25;;;38.92;;
35326;SDS011;21436;52.348;20.928;2023-01-10T07:47:14;108.97;;;40.53;;
35326;SDS011;21436;52.348;20.928;2023-01-10T07:49:41;103.82;;;37.70;;
35326;SDS011;21436;52.348;20.928;2023-01-10T07:52:09;102.28;;;38.00;;
35326;SDS011;21436;52.348;20.928;2023-01-10T07:54:36;93.97;;;35.75;;
35326;SDS011;21436;52.348;20.928;2023-01-10T07:57:04;87.70;;;34.53;;
35326;SDS011;21436;52.348;20.928;2023-01-10T07:59:31;95.57;;;36.50;;
35326;SDS011;21436;52.348;20.928;2023-01-10T08:01:59;96.40;;;34.08;;
35326;SDS011;21436;52.348;20.928;2023-01-10T08:04:27;84.05;;;31.88;;
35326;SDS011;21436;52.348;20.928;2023-01-10T08:06:54;97.28;;;31.83;;
35326;SDS011;21436;52.348;20.928;2023-01-10T08:09:22;90.47;;;31.92;;
35326;SDS011;21436;52.348;20.928;2023-01-10T08:11:49;83.38;;;31.92;;
35326;SDS011;21436;52.348;20.928;2023-01-10T08:14:17;81.90;;;30.88;;
35326;SDS011;21436;52.348;20.928;2023-01-10T08:16:44;87.68;;;30.40;;
35326;SDS011;21436;52.348;20.928;2023-01-10T08:19:12;75.07;;;29.48;;
35326;SDS011;21436;52.348;20.928;2023-01-10T08:21:43;83.38;;;30.55;;
35326;SDS011;21436;52.348;20.928;2023-01-10T08:24:10;82.53;;;29.83;;
35326;SDS011;21436;52.348;20.928;2023-01-10T08:26:38;72.43;;;28.77;;
35326;SDS011;21436;52.348;20.928;2023-01-10T08:29:05;70.30;;;27.90;;
35326;SDS011;21436;52.348;20.928;2023-01-10T08:31:33;77.03;;;29.88;;
35326;SDS011;21436;52.348;20.928;2023-01-10T08:34:01;73.97;;;29.15;;
35326;SDS011;21436;52.348;20.928;2023-01-10T08:36:28;72.82;;;28.45;;
35326;SDS011;21436;52.348;20.928;2023-01-10T08:38:56;75.90;;;28.33;;
35326;SDS011;21436;52.348;20.928;2023-01-10T08:41:24;69.32;;;28.80;;
35326;SDS011;21436;52.348;20.928;2023-01-10T08:43:51;65.90;;;26.75;;
35326;SDS011;21436;52.348;20.928;2023-01-10T08:46:19;70.80;;;28.00;;
35326;SDS011;21436;52.348;20.928;2023-01-10T08:48:47;68.70;;;27.33;;
35326;SDS011;21436;52.348;20.928;2023-01-10T08:51:16;70.65;;;26.52;;
35326;SDS011;21436;52.348;20.928;2023-01-10T08:53:44;64.30;;;27.10;;
35326;SDS011;21436;52.348;20.928;2023-01-10T08:56:11;73.22;;;27.42;;
35326;SDS011;21436;52.348;20.928;2023-01-10T08:58:39;77.13;;;27.05;;
35326;SDS011;21436;52.348;20.928;2023-01-10T09:01:07;66.05;;;27.52;;
35326;SDS011;21436;52.348;20.928;2023-01-10T09:03:34;66.88;;;25.40;;
35326;SDS011;21436;52.348;20.928;2023-01-10T09:06:02;66.90;;;26.80;;
35326;SDS011;21436;52.348;20.928;2023-01-10T09:08:29;67.32;;;27.02;;
35326;SDS011;21436;52.348;20.928;2023-01-10T09:10:57;65.30;;;27.00;;
35326;SDS011;21436;52.348;20.928;2023-01-10T09:13:27;65.68;;;25.40;;
35326;SDS011;21436;52.348;20.928;2023-01-10T09:15:55;64.75;;;25.08;;
35326;SDS011;21436;52.348;20.928;2023-01-10T09:18:23;70.68;;;25.92;;
35326;SDS011;21436;52.348;20.928;2023-01-10T09:20:51;72.13;;;26.90;;
35326;SDS011;21436;52.348;20.928;2023-01-10T09:23:19;64.85;;;25.67;;
35326;SDS011;21436;52.348;20.928;2023-01-10T09:25:48;61.83;;;26.30;;
35326;SDS011;21436;52.348;20.928;2023-01-10T09:28:18;67.20;;;25.85;;
35326;SDS011;21436;52.348;20.928;2023-01-10T09:30:47;66.72;;;26.52;;
35326;SDS011;21436;52.348;20.928;2023-01-10T09:33:14;66.43;;;26.92;;
35326;SDS011;21436;52.348;20.928;2023-01-10T09:35:42;68.63;;;25.50;;
35326;SDS011;21436;52.348;20.928;2023-01-10T09:38:11;66.55;;;25.95;;
35326;SDS011;21436;52.348;20.928;2023-01-10T09:43:50;61.05;;;24.88;;
35326;SDS011;21436;52.348;20.928;2023-01-10T09:52:05;70.28;;;26.65;;
35326;SDS011;21436;52.348;20.928;2023-01-10T09:54:57;60.40;;;25.15;;
35326;SDS011;21436;52.348;20.928;2023-01-10T09:57:29;64.90;;;25.92;;
35326;SDS011;21436;52.348;20.928;2023-01-10T09:59:57;58.75;;;25.20;;
35326;SDS011;21436;52.348;20.928;2023-01-10T10:02:29;57.25;;;24.27;;
35326;SDS011;21436;52.348;20.928;2023-01-10T10:07:38;64.30;;;27.27;;
35326;SDS011;21436;52.348;20.928;2023-01-10T10:10:06;65.85;;;25.75;;
35326;SDS011;21436;52.348;20.928;2023-01-10T10:12:52;63.95;;;25.80;;
35326;SDS011;21436;52.348;20.928;2023-01-10T10:20:47;66.30;;;25.92;;
35326;SDS011;21436;52.348;20.928;2023-01-10T10:23:24;66.30;;;26.58;;
35326;SDS011;21436;52.348;20.928;2023-01-10T10:26:34;68.68;;;26.33;;
35326;SDS011;21436;52.348;20.928;2023-01-10T10:35:11;74.78;;;27.63;;
35326;SDS011;21436;52.348;20.928;2023-01-10T10:37:43;67.82;;;27.27;;
35326;SDS011;21436;52.348;20.928;2023-01-10T10:42:41;77.97;;;32.45;;
35326;SDS011;21436;52.348;20.928;2023-01-10T10:45:15;64.00;;;27.13;;
35326;SDS011;21436;52.348;20.928;2023-01-10T10:47:44;69.47;;;27.10;;
35326;SDS011;21436;52.348;20.928;2023-01-10T10:52:48;62.63;;;25.20;;
35326;SDS011;21436;52.348;20.928;2023-01-10T10:55:17;64.57;;;27.25;;
35326;SDS011;21436;52.348;20.928;2023-01-10T10:57:54;63.45;;;25.00;;
35326;SDS011;21436;52.348;20.928;2023-01-10T11:00:27;62.30;;;26.33;;
35326;SDS011;21436;52.348;20.928;2023-01-10T11:03:03;59.50;;;25.15;;
35326;SDS011;21436;52.348;20.928;2023-01-10T11:05:35;63.60;;;26.50;;
35326;SDS011;21436;52.348;20.928;2023-01-10T11:08:05;91.32;;;36.70;;
35326;SDS011;21436;52.348;20.928;2023-01-10T11:10:41;100.32;;;39.50;;
35326;SDS011;21436;52.348;20.928;2023-01-10T11:13:15;67.50;;;27.23;;
35326;SDS011;21436;52.348;20.928;2023-01-10T11:16:04;68.65;;;30.55;;
35326;SDS011;21436;52.348;20.928;2023-01-10T11:18:32;74.88;;;33.22;;
35326;SDS011;21436;52.348;20.928;2023-01-10T11:21:02;66.75;;;28.13;;
35326;SDS011;21436;52.348;20.928;2023-01-10T11:29:16;74.55;;;35.63;;
35326;SDS011;21436;52.348;20.928;2023-01-10T11:31:46;66.45;;;29.65;;
35326;SDS011;21436;52.348;20.928;2023-01-10T11:34:19;79.28;;;31.13;;
35326;SDS011;21436;52.348;20.928;2023-01-10T11:36:52;79.65;;;34.13;;
35326;SDS011;21436;52.348;20.928;2023-01-10T11:39:20;65.32;;;27.30;;
35326;SDS011;21436;52.348;20.928;2023-01-10T11:41:48;69.97;;;27.67;;
35326;SDS011;21436;52.348;20.928;2023-01-10T11:44:23;55.35;;;24.15;;
35326;SDS011;21436;52.348;20.928;2023-01-10T11:46:57;66.10;;;28.70;;
35326;SDS011;21436;52.348;20.928;2023-01-10T11:52:43;64.78;;;28.00;;
35326;SDS011;21436;52.348;20.928;2023-01-10T11:54:52;60.00;;;25.25;;
35326;SDS011;21436;52.348;20.928;2023-01-10T11:57:26;70.55;;;29.65;;
35326;SDS011;21436;52.348;20.928;2023-01-10T12:02:42;52.05;;;23.13;;
35326;SDS011;21436;52.348;20.928;2023-01-10T12:05:19;61.20;;;24.02;;
35326;SDS011;21436;52.348;20.928;2023-01-10T12:10:26;51.08;;;23.08;;
35326;SDS011;21436;52.348;20.928;2023-01-10T12:12:55;46.83;;;21.35;;
35326;SDS011;21436;52.348;20.928;2023-01-10T12:15:25;53.17;;;23.30;;
35326;SDS011;21436;52.348;20.928;2023-01-10T12:17:56;62.13;;;24.75;;
35326;SDS011;21436;52.348;20.928;2023-01-10T12:20:25;54.22;;;24.67;;
35326;SDS011;21436;52.348;20.928;2023-01-10T12:22:56;57.67;;;25.48;;
35326;SDS011;21436;52.348;20.928;2023-01-10T12:25:28;54.03;;;25.85;;
35326;SDS011;21436;52.348;20.928;2023-01-10T12:27:59;56.47;;;25.60;;
35326;SDS011;21436;52.348;20.928;2023-01-10T12:30:30;56.63;;;25.10;;
35326;SDS011;21436;52.348;20.928;2023-01-10T12:33:12;60.95;;;25.33;;
35326;SDS011;21436;52.348;20.928;2023-01-10T12:35:46;63.38;;;26.33;;
35326;SDS011;21436;52.348;20.928;2023-01-10T12:44:48;59.72;;;26.13;;
35326;SDS011;21436;52.348;20.928;2023-01-10T12:50:19;65.80;;;27.13;;
35326;SDS011;21436;52.348;20.928;2023-01-10T12:52:51;56.45;;;26.70;;
35326;SDS011;21436;52.348;20.928;2023-01-10T12:55:25;63.22;;;26.50;;
35326;SDS011;21436;52.348;20.928;2023-01-10T12:57:59;58.83;;;26.38;;
35326;SDS011;21436;52.348;20.928;2023-01-10T13:00:29;64.55;;;26.23;;
35326;SDS011;21436;52.348;20.928;2023-01-10T13:03:14;71.28;;;30.17;;
35326;SDS011;21436;52.348;20.928;2023-01-10T13:05:51;106.03;;;43.30;;
35326;SDS011;21436;52.348;20.928;2023-01-10T13:08:21;143.60;;;58.03;;
35326;SDS011;21436;52.348;20.928;2023-01-10T13:10:51;133.63;;;58.83;;
35326;SDS011;21436;52.348;20.928;2023-01-10T13:21:39;78.10;;;34.00;;
35326;SDS011;21436;52.348;20.928;2023-01-10T13:24:23;70.97;;;32.25;;
35326;SDS011;21436;52.348;20.928;2023-01-10T13:26:58;65.45;;;27.83;;
35326;SDS011;21436;52.348;20.928;2023-01-10T13:29:28;79.13;;;38.20;;
35326;SDS011;21436;52.348;20.928;2023-01-10T13:31:59;68.00;;;31.73;;
35326;SDS011;21436;52.348;20.928;2023-01-10T13:34:31;74.55;;;34.60;;
35326;SDS011;21436;52.348;20.928;2023-01-10T13:37:01;92.70;;;44.22;;
35326;SDS011;21436;52.348;20.928;2023-01-10T13:39:37;82.10;;;37.47;;
35326;SDS011;21436;52.348;20.928;2023-01-10T14:00:47;59.22;;;27.88;;
35326;SDS011;21436;52.348;20.928;2023-01-10T14:08:54;50.55;;;24.88;;
35326;SDS011;21436;52.348;20.928;2023-01-10T14:11:23;45.67;;;22.77;;
35326;SDS011;21436;52.348;20.928;2023-01-10T14:13:58;56.67;;;25.63;;
35326;SDS011;21436;52.348;20.928;2023-01-10T14:19:00;52.88;;;23.08;;
35326;SDS011;21436;52.348;20.928;2023-01-10T14:21:29;48.40;;;23.27;;
35326;SDS011;21436;52.348;20.928;2023-01-10T14:23:57;45.47;;;21.30;;
35326;SDS011;21436;52.348;20.928;2023-01-10T14:26:32;56.38;;;23.60;;
35326;SDS011;21436;52.348;20.928;2023-01-10T14:29:09;39.95;;;19.23;;
35326;SDS011;21436;52.348;20.928;2023-01-10T14:31:42;46.92;;;21.45;;
35326;SDS011;21436;52.348;20.928;2023-01-10T14:37:06;180.65;;;76.47;;
35326;SDS011;21436;52.348;20.928;2023-01-10T14:39:42;85.13;;;37.85;;
35326;SDS011;21436;52.348;20.928;2023-01-10T14:42:11;54.40;;;25.55;;
35326;SDS011;21436;52.348;20.928;2023-01-10T14:47:28;61.33;;;25.58;;
35326;SDS011;21436;52.348;20.928;2023-01-10T14:49:57;126.43;;;47.42;;
35326;SDS011;21436;52.348;20.928;2023-01-10T14:52:28;115.25;;;47.88;;
35326;SDS011;21436;52.348;20.928;2023-01-10T14:57:23;95.32;;;38.88;;
35326;SDS011;21436;52.348;20.928;2023-01-10T14:59:52;96.53;;;43.08;;
35326;SDS011;21436;52.348;20.928;2023-01-10T15:02:43;93.18;;;39.85;;
35326;SDS011;21436;52.348;20.928;2023-01-10T15:05:31;62.33;;;28.52;;
35326;SDS011;21436;52.348;20.928;2023-01-10T15:08:18;50.58;;;20.60;;
35326;SDS011;21436;52.348;20.928;2023-01-10T15:10:49;52.50;;;24.80;;
35326;SDS011;21436;52.348;20.928;2023-01-10T15:13:27;65.60;;;27.77;;
35326;SDS011;21436;52.348;20.928;2023-01-10T15:15:56;51.78;;;23.75;;
35326;SDS011;21436;52.348;20.928;2023-01-10T15:18:39;55.75;;;26.15;;
35326;SDS011;21436;52.348;20.928;2023-01-10T15:21:10;64.40;;;27.92;;
35326;SDS011;21436;52.348;20.928;2023-01-10T15:23:39;59.85;;;26.90;;
35326;SDS011;21436;52.348;20.928;2023-01-10T15:28:44;67.43;;;29.45;;
35326;SDS011;21436;52.348;20.928;2023-01-10T15:31:15;52.90;;;24.05;;
35326;SDS011;21436;52.348;20.928;2023-01-10T15:33:44;54.67;;;23.77;;
35326;SDS011;21436;52.348;20.928;2023-01-10T15:36:14;61.63;;;26.77;;
35326;SDS011;21436;52.348;20.928;2023-01-10T15:38:43;61.75;;;27.10;;
35326;SDS011;21436;52.348;20.928;2023-01-10T15:41:16;62.70;;;26.80;;
35326;SDS011;21436;52.348;20.928;2023-01-10T15:43:45;68.80;;;28.90;;
35326;SDS011;21436;52.348;20.928;2023-01-10T15:46:20;58.70;;;27.02;;
35326;SDS011;21436;52.348;20.928;2023-01-10T15:48:56;60.08;;;26.40;;
35326;SDS011;21436;52.348;20.928;2023-01-10T15:51:32;56.70;;;27.17;;
35326;SDS011;21436;52.348;20.928;2023-01-10T15:54:02;71.40;;;29.48;;
35326;SDS011;21436;52.348;20.928;2023-01-10T15:56:34;87.85;;;38.35;;
35326;SDS011;21436;52.348;20.928;2023-01-10T15:59:04;76.75;;;32.38;;
35326;SDS011;21436;52.348;20.928;2023-01-10T16:02:03;81.32;;;33.17;;
35326;SDS011;21436;52.348;20.928;2023-01-10T16:04:42;83.55;;;39.00;;
35326;SDS011;21436;52.348;20.928;2023-01-10T16:07:17;74.78;;;32.13;;
35326;SDS011;21436;52.348;20.928;2023-01-10T16:09:56;77.15;;;35.45;;
35326;SDS011;21436;52.348;20.928;2023-01-10T16:12:39;76.22;;;32.30;;
35326;SDS011;21436;52.348;20.928;2023-01-10T16:15:29;76.43;;;31.35;;
35326;SDS011;21436;52.348;20.928;2023-01-10T16:17:58;73.25;;;32.00;;
35326;SDS011;21436;52.348;20.928;2023-01-10T16:20:29;78.93;;;34.55;;
35326;SDS011;21436;52.348;20.928;2023-01-10T16:23:05;72.82;;;32.05;;
35326;SDS011;21436;52.348;20.928;2023-01-10T16:25:40;80.95;;;36.17;;
35326;SDS011;21436;52.348;20.928;2023-01-10T16:28:11;86.28;;;37.97;;
35326;SDS011;21436;52.348;20.928;2023-01-10T16:30:40;105.03;;;46.63;;
35326;SDS011;21436;52.348;20.928;2023-01-10T16:33:13;85.80;;;39.85;;
35326;SDS011;21436;52.348;20.928;2023-01-10T16:35:44;90.43;;;41.00;;